Terminal Aerodrome Forecast
Issued by NWS

Home | Current Version | Previous Version | Text Only | Print | Product List | Glossary On
Versions: 1 2 3 4 5 6 7 8 9 10 11 12 13 14 15 16 17 18 19 20 21 22 23 24 25 26 27 28 29 30 31 32 33 34 35 36
000
FTUS42 KGSP 280500
TAFHKY
TAF
KHKY 280536Z 2806/2906 26009KT P6SM VCTS BKN080CB
      TEMPO 2806/2807 VRB10G18KT 6SM TSRA BKN040CB
     FM280900 26008KT P6SM BKN250
     FM281200 27006KT P6SM SCT250
     FM281400 28012G18KT P6SM SCT250
     FM290200 33008KT P6SM SCT060=

USA.gov is the U.S. government's official web portal to all federal, state and local government web resources and services.